createdAt,value
2023-05-03T00:01:59.264Z,100.00
2023-05-03T00:04:26.723Z,100.00
2023-05-03T00:06:54.220Z,100.00
2023-05-03T00:09:21.779Z,100.00
2023-05-03T00:11:49.124Z,100.00
2023-05-03T00:14:16.539Z,100.00
2023-05-03T00:16:44.071Z,100.00
2023-05-03T00:19:24.173Z,100.00
2023-05-03T00:21:58.229Z,100.00
2023-05-03T00:24:25.621Z,100.00
2023-05-03T00:26:52.996Z,100.00
2023-05-03T00:29:22.836Z,100.00
2023-05-03T00:31:50.309Z,100.00
2023-05-03T00:34:17.693Z,100.00
2023-05-03T00:36:45.045Z,100.00
2023-05-03T00:39:12.655Z,100.00
2023-05-03T00:41:40.128Z,100.00
2023-05-03T00:44:07.525Z,100.00
2023-05-03T00:46:35.039Z,100.00
2023-05-03T00:49:02.619Z,100.00
2023-05-03T00:51:29.995Z,100.00
2023-05-03T00:53:57.542Z,100.00
2023-05-03T00:56:24.997Z,100.00
2023-05-03T00:58:52.842Z,100.00
2023-05-03T01:01:20.301Z,100.00
2023-05-03T01:03:48.429Z,100.00
2023-05-03T01:06:18.773Z,100.00
2023-05-03T01:08:54.091Z,100.00
2023-05-03T01:11:25.180Z,100.00
2023-05-03T01:14:22.046Z,100.00
2023-05-03T01:16:55.017Z,100.00
2023-05-03T01:19:39.055Z,100.00
2023-05-03T01:22:27.354Z,100.00
2023-05-03T01:25:07.874Z,100.00
2023-05-03T01:27:35.285Z,100.00
2023-05-03T01:30:05.828Z,100.00
2023-05-03T01:32:53.744Z,100.00
2023-05-03T01:35:32.048Z,100.00
2023-05-03T01:37:59.955Z,100.00
2023-05-03T01:40:29.002Z,100.00
2023-05-03T01:42:57.604Z,100.00
2023-05-03T01:45:25.796Z,100.00
2023-05-03T01:47:53.262Z,100.00
2023-05-03T01:50:20.742Z,100.00
2023-05-03T01:52:48.610Z,100.00
2023-05-03T01:55:16.118Z,100.00
2023-05-03T01:57:43.664Z,100.00
2023-05-03T02:00:11.684Z,100.00
2023-05-03T02:02:39.170Z,100.00
2023-05-03T02:05:07.051Z,100.00
2023-05-03T02:07:34.643Z,100.00
2023-05-03T02:10:02.476Z,100.00
2023-05-03T02:12:29.966Z,100.00
2023-05-03T02:14:57.379Z,100.00
2023-05-03T02:17:26.616Z,100.00
2023-05-03T02:19:54.202Z,100.00
2023-05-03T02:22:21.775Z,100.00
2023-05-03T02:24:49.576Z,100.00
2023-05-03T02:27:17.253Z,100.00
2023-05-03T02:29:45.010Z,100.00
2023-05-03T02:32:12.672Z,100.00
2023-05-03T02:34:40.229Z,100.00
2023-05-03T02:37:07.712Z,100.00
2023-05-03T02:39:35.078Z,100.00
2023-05-03T02:42:02.565Z,100.00
2023-05-03T02:44:31.874Z,100.00
2023-05-03T02:47:00.555Z,100.00
2023-05-03T02:49:28.003Z,100.00
2023-05-03T02:51:56.701Z,100.00
2023-05-03T02:54:24.255Z,100.00
2023-05-03T02:56:51.794Z,100.00
2023-05-03T02:59:19.202Z,100.00
2023-05-03T03:01:47.346Z,100.00
2023-05-03T03:04:15.801Z,100.00
2023-05-03T03:06:43.239Z,100.00
2023-05-03T03:09:10.747Z,100.00
2023-05-03T03:11:38.213Z,100.00
2023-05-03T03:14:05.695Z,100.00
2023-05-03T03:16:33.302Z,100.00
2023-05-03T03:19:00.773Z,100.00
2023-05-03T03:21:29.045Z,100.00
2023-05-03T03:23:57.251Z,100.00
2023-05-03T03:26:24.659Z,100.00
2023-05-03T03:28:52.106Z,100.00
2023-05-03T03:31:19.568Z,100.00
2023-05-03T03:33:47.421Z,100.00
2023-05-03T03:36:14.929Z,100.00
2023-05-03T03:38:42.283Z,100.00
2023-05-03T03:41:10.001Z,100.00
2023-05-03T03:43:37.404Z,100.00
2023-05-03T03:46:04.790Z,100.00
2023-05-03T03:48:32.192Z,100.00
2023-05-03T03:50:59.640Z,100.00
2023-05-03T03:53:27.120Z,100.00
2023-05-03T03:55:54.609Z,100.00
2023-05-03T03:58:22.102Z,100.00
2023-05-03T04:00:49.718Z,100.00
2023-05-03T04:03:17.603Z,100.00
2023-05-03T04:05:45.274Z,100.00
2023-05-03T04:08:12.745Z,100.00
2023-05-03T04:10:40.179Z,100.00
2023-05-03T04:13:07.611Z,100.00
2023-05-03T04:15:35.075Z,100.00
2023-05-03T04:18:02.897Z,100.00
2023-05-03T04:20:30.366Z,100.00
2023-05-03T04:22:57.803Z,100.00
2023-05-03T04:25:25.587Z,100.00
2023-05-03T04:27:53.822Z,100.00
2023-05-03T04:30:21.262Z,100.00
2023-05-03T04:32:48.673Z,100.00
2023-05-03T04:35:16.128Z,100.00
2023-05-03T04:37:43.693Z,100.00
2023-05-03T04:40:12.381Z,100.00
2023-05-03T04:42:40.025Z,100.00
2023-05-03T04:45:09.646Z,100.00
2023-05-03T04:47:37.606Z,100.00
2023-05-03T04:50:05.800Z,100.00
2023-05-03T04:52:33.491Z,100.00
2023-05-03T04:55:00.914Z,100.00
2023-05-03T04:57:28.674Z,100.00
2023-05-03T04:59:56.062Z,100.00
2023-05-03T05:02:23.625Z,100.00
2023-05-03T05:04:51.152Z,100.00
2023-05-03T05:07:18.674Z,100.00
2023-05-03T05:09:46.232Z,100.00
2023-05-03T05:12:13.713Z,100.00
2023-05-03T05:14:41.110Z,100.00
2023-05-03T05:17:08.642Z,100.00
2023-05-03T05:19:36.811Z,100.00
2023-05-03T05:22:04.463Z,100.00
2023-05-03T05:24:31.861Z,100.00
2023-05-03T05:26:59.296Z,100.00
2023-05-03T05:29:26.724Z,100.00
2023-05-03T05:31:54.205Z,100.00
2023-05-03T05:34:21.640Z,100.00
2023-05-03T05:36:50.554Z,100.00
2023-05-03T05:39:18.044Z,100.00
2023-05-03T05:41:45.471Z,100.00
2023-05-03T05:44:13.284Z,100.00
2023-05-03T05:46:40.774Z,100.00
2023-05-03T05:49:08.216Z,100.00
2023-05-03T05:51:35.693Z,100.00
2023-05-03T05:54:03.612Z,100.00
2023-05-03T05:56:31.008Z,100.00
2023-05-03T05:58:58.410Z,100.00
2023-05-03T06:01:27.089Z,100.00
2023-05-03T06:03:55.510Z,100.00
2023-05-03T06:06:23.003Z,100.00
2023-05-03T06:08:51.494Z,100.00
2023-05-03T06:11:19.122Z,100.00
2023-05-03T06:13:46.723Z,100.00
2023-05-03T06:16:14.303Z,100.00
2023-05-03T06:18:41.993Z,100.00
2023-05-03T06:21:10.262Z,100.00
2023-05-03T06:23:39.702Z,100.00
2023-05-03T06:26:07.569Z,100.00
2023-05-03T06:28:35.911Z,100.00
2023-05-03T06:31:03.738Z,100.00
2023-05-03T06:33:31.386Z,100.00
2023-05-03T06:35:59.459Z,100.00
2023-05-03T06:38:27.084Z,100.00
2023-05-03T06:40:54.499Z,100.00
2023-05-03T06:43:22.258Z,100.00
2023-05-03T06:45:52.303Z,99.72
2023-05-03T06:48:19.904Z,98.59
2023-05-03T06:50:47.443Z,97.81
2023-05-03T06:53:14.814Z,96.39
2023-05-03T06:55:44.424Z,91.24
2023-05-03T06:58:11.776Z,91.65
2023-05-03T07:00:39.870Z,89.95
2023-05-03T07:03:07.538Z,90.87
2023-05-03T07:05:35.554Z,89.42
2023-05-03T07:08:03.625Z,88.06
2023-05-03T07:10:31.463Z,85.84
2023-05-03T07:12:59.134Z,84.56
2023-05-03T07:15:26.545Z,83.44
2023-05-03T07:17:54.009Z,84.02
2023-05-03T07:20:21.534Z,83.00
2023-05-03T07:22:49.076Z,81.91
2023-05-03T07:25:17.880Z,81.82
2023-05-03T07:27:45.539Z,80.31
2023-05-03T07:30:13.037Z,79.88
2023-05-03T07:32:40.600Z,78.22
2023-05-03T07:35:08.588Z,74.66
2023-05-03T07:37:36.432Z,74.39
2023-05-03T07:40:06.626Z,76.47
2023-05-03T07:42:34.244Z,77.77
2023-05-03T07:45:01.820Z,75.83
2023-05-03T07:47:29.362Z,80.01
2023-05-03T07:49:56.782Z,78.74
2023-05-03T07:52:24.203Z,75.91
2023-05-03T07:54:51.580Z,73.58
2023-05-03T07:57:18.992Z,76.04
2023-05-03T07:59:46.374Z,75.66
2023-05-03T08:02:14.636Z,77.05
2023-05-03T08:04:42.220Z,74.40
2023-05-03T08:07:09.701Z,72.58
2023-05-03T08:09:37.546Z,72.70
2023-05-03T08:12:05.027Z,70.94
2023-05-03T08:14:33.692Z,70.38
2023-05-03T08:17:01.538Z,72.21
2023-05-03T08:19:28.999Z,70.72
2023-05-03T08:21:56.517Z,70.33
2023-05-03T08:24:24.176Z,70.56
2023-05-03T08:26:52.272Z,68.96
2023-05-03T08:29:19.734Z,70.66
2023-05-03T08:31:47.322Z,65.60
2023-05-03T08:34:14.938Z,68.30
2023-05-03T08:36:42.397Z,66.18
2023-05-03T08:39:10.336Z,64.03
2023-05-03T08:41:37.808Z,61.31
2023-05-03T08:44:05.557Z,61.61
2023-05-03T08:46:37.156Z,62.82
2023-05-03T08:49:06.900Z,59.24
2023-05-03T08:51:35.200Z,55.85
2023-05-03T08:54:02.611Z,58.18
2023-05-03T08:56:31.058Z,56.15
2023-05-03T08:59:04.920Z,52.94
2023-05-03T09:01:32.328Z,53.36
2023-05-03T09:03:59.949Z,52.35
2023-05-03T09:06:27.559Z,54.15
2023-05-03T09:08:55.522Z,51.65
2023-05-03T09:11:23.968Z,49.24
2023-05-03T09:13:52.916Z,48.08
2023-05-03T09:16:29.407Z,51.52
2023-05-03T09:19:01.544Z,51.60
2023-05-03T09:21:29.443Z,50.40
2023-05-03T09:23:56.849Z,49.66
2023-05-03T09:26:31.247Z,48.85
2023-05-03T09:28:59.357Z,46.82
2023-05-03T09:31:26.959Z,50.89
2023-05-03T09:33:54.592Z,47.76
2023-05-03T09:36:22.128Z,47.40
2023-05-03T09:38:50.026Z,43.88
2023-05-03T09:41:17.531Z,45.47
2023-05-03T09:43:52.341Z,48.58
2023-05-03T09:46:20.504Z,47.39
2023-05-03T09:48:49.391Z,48.43
2023-05-03T09:51:17.337Z,52.06
2023-05-03T09:53:44.678Z,50.35
2023-05-03T09:56:13.491Z,47.43
2023-05-03T09:58:41.569Z,44.39
2023-05-03T10:01:10.269Z,44.46
2023-05-03T10:03:37.777Z,47.21
2023-05-03T10:06:09.734Z,43.55
2023-05-03T10:08:45.518Z,44.56
2023-05-03T10:11:16.195Z,45.18
2023-05-03T10:13:43.675Z,44.31
2023-05-03T10:16:17.384Z,41.33
2023-05-03T10:18:54.980Z,41.51
2023-05-03T10:21:27.632Z,39.14
2023-05-03T10:24:11.147Z,39.75
2023-05-03T10:26:38.579Z,38.55
2023-05-03T10:29:07.276Z,37.73
2023-05-03T10:31:50.411Z,39.31
2023-05-03T10:34:21.231Z,38.74
2023-05-03T10:36:50.491Z,39.00
2023-05-03T10:39:18.986Z,39.40
2023-05-03T10:41:46.823Z,39.25
2023-05-03T10:44:37.447Z,39.92
2023-05-03T10:47:14.546Z,40.98
2023-05-03T10:49:41.985Z,40.04
2023-05-03T10:52:27.945Z,38.43
2023-05-03T10:54:55.357Z,39.81
2023-05-03T10:57:27.455Z,38.19
2023-05-03T10:59:55.135Z,38.67
2023-05-03T11:02:24.906Z,40.02
2023-05-03T11:04:53.601Z,40.04
2023-05-03T11:07:22.726Z,39.64
2023-05-03T11:09:50.184Z,39.85
2023-05-03T11:12:17.586Z,36.92
2023-05-03T11:14:44.974Z,38.38
2023-05-03T11:17:12.484Z,37.90
2023-05-03T11:19:40.604Z,38.42
2023-05-03T11:22:08.089Z,38.04
2023-05-03T11:24:35.452Z,36.59
2023-05-03T11:27:08.197Z,36.97
2023-05-03T11:29:36.238Z,37.14
2023-05-03T11:32:03.712Z,36.59
2023-05-03T11:34:31.196Z,34.67
2023-05-03T11:36:59.770Z,35.66
2023-05-03T11:39:28.857Z,36.18
2023-05-03T11:42:06.293Z,36.00
2023-05-03T11:44:33.857Z,35.04
2023-05-03T11:47:01.802Z,35.57
2023-05-03T11:49:29.582Z,35.32
2023-05-03T11:51:57.259Z,34.41
2023-05-03T11:54:27.419Z,35.64
2023-05-03T11:56:57.535Z,36.67
2023-05-03T11:59:40.819Z,35.38
2023-05-03T12:02:10.178Z,34.65
2023-05-03T12:04:41.685Z,35.93
2023-05-03T12:07:10.986Z,35.90
2023-05-03T12:09:40.096Z,35.02
2023-05-03T12:12:11.099Z,34.39
2023-05-03T12:14:58.431Z,35.76
2023-05-03T12:17:42.385Z,35.09
2023-05-03T12:22:57.717Z,33.65
2023-05-03T12:25:28.360Z,32.98
2023-05-03T12:28:18.801Z,33.98
2023-05-03T12:30:48.638Z,34.35
2023-05-03T12:33:21.642Z,34.59
2023-05-03T12:35:52.736Z,34.78
2023-05-03T12:38:23.943Z,33.77
2023-05-03T12:40:53.177Z,33.40
2023-05-03T12:43:20.879Z,33.25
2023-05-03T12:45:55.832Z,33.79
2023-05-03T12:48:36.306Z,32.43
2023-05-03T12:51:18.740Z,34.36
2023-05-03T12:53:54.360Z,32.36
2023-05-03T12:56:24.896Z,33.47
2023-05-03T12:59:15.151Z,32.69
2023-05-03T13:06:43.826Z,32.28
2023-05-03T13:09:19.078Z,32.24
2023-05-03T13:11:50.090Z,33.07
2023-05-03T13:14:17.844Z,34.26
2023-05-03T13:16:45.786Z,34.74
2023-05-03T13:19:16.727Z,33.32
2023-05-03T13:21:44.294Z,34.25
2023-05-03T13:24:11.872Z,33.87
2023-05-03T13:26:39.301Z,33.13
2023-05-03T13:29:07.416Z,31.28
2023-05-03T13:31:40.741Z,32.62
2023-05-03T13:34:08.530Z,33.48
2023-05-03T13:36:36.160Z,31.69
2023-05-03T13:39:03.699Z,32.03
2023-05-03T13:41:31.547Z,32.57
2023-05-03T13:43:59.075Z,33.40
2023-05-03T13:46:26.829Z,33.18
2023-05-03T13:48:56.284Z,31.74
2023-05-03T13:51:25.149Z,32.49
2023-05-03T13:53:52.942Z,33.74
2023-05-03T13:56:20.467Z,33.99
2023-05-03T13:58:47.901Z,35.28
2023-05-03T14:01:15.400Z,34.76
2023-05-03T14:03:42.882Z,36.12
2023-05-03T14:06:10.636Z,35.91
2023-05-03T14:08:38.009Z,35.01
2023-05-03T14:11:06.538Z,36.41
2023-05-03T14:13:47.664Z,36.05
2023-05-03T14:16:35.786Z,37.52
2023-05-03T14:19:10.219Z,37.61
2023-05-03T14:21:38.474Z,38.73
2023-05-03T14:24:06.515Z,39.86
2023-05-03T14:26:34.866Z,40.13
2023-05-03T14:29:02.411Z,40.42
2023-05-03T14:31:30.464Z,41.34
2023-05-03T14:33:59.281Z,40.73
2023-05-03T14:36:29.507Z,42.60
2023-05-03T14:38:56.914Z,42.02
2023-05-03T14:41:24.300Z,42.47
2023-05-03T14:43:51.710Z,42.52
2023-05-03T14:46:19.159Z,42.88
2023-05-03T14:48:46.633Z,42.13
2023-05-03T14:51:14.968Z,43.67
2023-05-03T14:53:42.478Z,43.10
2023-05-03T14:56:10.053Z,43.05
2023-05-03T14:58:37.468Z,43.08
2023-05-03T15:01:05.007Z,42.82
2023-05-03T15:03:32.565Z,42.08
2023-05-03T15:06:00.226Z,40.95
2023-05-03T15:08:27.924Z,42.00
2023-05-03T15:10:55.400Z,41.67
2023-05-03T15:13:24.348Z,41.81
2023-05-03T15:15:52.115Z,42.00
2023-05-03T15:18:20.358Z,42.22
2023-05-03T15:20:48.014Z,42.02
2023-05-03T15:23:15.461Z,41.15
2023-05-03T15:25:42.934Z,42.01
2023-05-03T15:28:10.390Z,42.64
2023-05-03T15:30:38.030Z,41.87
2023-05-03T15:33:05.683Z,41.63
2023-05-03T15:35:33.156Z,41.69
2023-05-03T15:38:00.597Z,42.44
2023-05-03T15:40:28.125Z,43.37
2023-05-03T15:42:55.731Z,42.63
2023-05-03T15:45:26.015Z,42.49
2023-05-03T15:47:53.681Z,43.03
2023-05-03T15:50:23.250Z,43.61
2023-05-03T15:52:50.788Z,44.05
2023-05-03T15:55:19.384Z,43.06
2023-05-03T15:57:46.857Z,43.60
2023-05-03T16:00:16.363Z,42.89
2023-05-03T16:02:44.093Z,42.43
2023-05-03T16:05:12.781Z,44.11
2023-05-03T16:07:40.348Z,43.04
2023-05-03T16:10:11.021Z,43.17
2023-05-03T16:12:38.543Z,43.15
2023-05-03T16:15:07.723Z,42.36
2023-05-03T16:17:36.462Z,43.15
2023-05-03T16:20:08.252Z,43.74
2023-05-03T16:22:37.104Z,43.73
2023-05-03T16:25:07.404Z,43.37
2023-05-03T16:27:35.039Z,44.36
2023-05-03T16:30:02.968Z,44.36
2023-05-03T16:32:30.720Z,44.69
2023-05-03T16:34:58.321Z,44.71
2023-05-03T16:37:25.697Z,45.44
2023-05-03T16:39:53.071Z,45.08
2023-05-03T16:42:20.503Z,43.95
2023-05-03T16:44:48.137Z,44.38
2023-05-03T16:47:15.816Z,43.53
2023-05-03T16:49:43.615Z,43.71
2023-05-03T16:52:11.282Z,43.82
2023-05-03T16:54:38.880Z,44.44
2023-05-03T16:57:06.378Z,45.34
2023-05-03T16:59:34.106Z,44.85
2023-05-03T17:02:01.584Z,44.58
2023-05-03T17:04:29.326Z,43.20
2023-05-03T17:06:57.521Z,43.01
2023-05-03T17:09:24.942Z,42.00
2023-05-03T17:11:52.601Z,43.90
2023-05-03T17:14:20.098Z,44.05
2023-05-03T17:16:48.932Z,45.27
2023-05-03T17:19:18.083Z,46.83
2023-05-03T17:21:45.500Z,46.88
2023-05-03T17:24:12.946Z,47.46
2023-05-03T17:26:40.618Z,47.69
2023-05-03T17:29:08.537Z,47.81
2023-05-03T17:31:35.924Z,47.91
2023-05-03T17:34:03.453Z,46.32
2023-05-03T17:36:30.915Z,46.32
2023-05-03T17:38:58.429Z,46.23
2023-05-03T17:41:25.972Z,46.38
2023-05-03T17:43:53.770Z,47.44
2023-05-03T17:46:21.232Z,47.08
2023-05-03T17:48:48.747Z,47.20
2023-05-03T17:51:16.461Z,47.14
2023-05-03T17:53:43.899Z,47.82
2023-05-03T17:56:18.018Z,47.82
2023-05-03T17:58:46.584Z,47.15
2023-05-03T18:01:15.749Z,47.71
2023-05-03T18:03:43.754Z,47.32
2023-05-03T18:06:13.266Z,47.64
2023-05-03T18:08:41.419Z,48.90
2023-05-03T18:11:09.305Z,49.15
2023-05-03T18:13:36.785Z,48.69
2023-05-03T18:16:08.315Z,49.94
2023-05-03T18:18:35.926Z,50.98
2023-05-03T18:21:04.521Z,51.34
2023-05-03T18:23:32.728Z,51.60
2023-05-03T18:26:00.864Z,52.31
2023-05-03T18:28:28.367Z,53.03
2023-05-03T18:30:56.621Z,54.19
2023-05-03T18:33:24.049Z,54.71
2023-05-03T18:35:52.104Z,54.24
2023-05-03T18:38:21.434Z,54.89
2023-05-03T18:40:51.347Z,55.16
2023-05-03T18:43:18.864Z,56.39
2023-05-03T18:45:46.350Z,55.98
2023-05-03T18:48:13.870Z,56.04
2023-05-03T18:50:43.085Z,57.69
2023-05-03T18:53:11.488Z,57.73
2023-05-03T18:55:38.890Z,57.41
2023-05-03T18:58:06.358Z,58.54
2023-05-03T19:00:33.889Z,58.18
2023-05-03T19:03:01.532Z,58.48
2023-05-03T19:05:29.034Z,60.78
2023-05-03T19:07:56.501Z,59.65
2023-05-03T19:10:25.508Z,61.43
2023-05-03T19:12:53.783Z,63.08
2023-05-03T19:15:21.554Z,64.13
2023-05-03T19:17:49.116Z,66.37
2023-05-03T19:20:17.369Z,65.19
2023-05-03T19:22:44.787Z,64.98
2023-05-03T19:25:12.237Z,65.76
2023-05-03T19:27:39.619Z,65.86
2023-05-03T19:30:07.795Z,64.69
2023-05-03T19:32:38.998Z,66.73
2023-05-03T19:35:09.748Z,67.33
2023-05-03T19:37:37.477Z,68.38
2023-05-03T19:40:06.269Z,68.72
2023-05-03T19:42:34.163Z,69.49
2023-05-03T19:45:03.451Z,69.56
2023-05-03T19:47:31.540Z,70.31
2023-05-03T19:49:58.981Z,71.19
2023-05-03T19:52:26.410Z,71.53
2023-05-03T19:54:53.877Z,71.86
2023-05-03T19:57:21.313Z,72.76
2023-05-03T19:59:48.772Z,72.07
2023-05-03T20:02:16.581Z,72.47
2023-05-03T20:04:43.982Z,72.25
2023-05-03T20:07:11.371Z,73.41
2023-05-03T20:09:38.752Z,71.66
2023-05-03T20:12:06.390Z,72.56
2023-05-03T20:14:33.783Z,73.07
2023-05-03T20:17:01.505Z,75.09
2023-05-03T20:19:28.973Z,76.15
2023-05-03T20:21:56.437Z,76.93
2023-05-03T20:24:24.204Z,76.83
2023-05-03T20:26:51.758Z,77.23
2023-05-03T20:29:19.335Z,77.05
2023-05-03T20:31:48.452Z,81.04
2023-05-03T20:34:16.299Z,80.46
2023-05-03T20:36:43.743Z,82.30
2023-05-03T20:39:11.810Z,84.39
2023-05-03T20:41:39.308Z,86.36
2023-05-03T20:44:06.741Z,87.51
2023-05-03T20:46:35.507Z,87.71
2023-05-03T20:49:02.875Z,88.93
2023-05-03T20:51:30.388Z,89.40
2023-05-03T20:53:57.792Z,90.35
2023-05-03T20:56:25.287Z,90.87
2023-05-03T20:58:52.675Z,93.76
2023-05-03T21:01:22.314Z,94.71
2023-05-03T21:03:49.742Z,94.90
2023-05-03T21:06:17.077Z,96.05
2023-05-03T21:08:44.664Z,96.87
2023-05-03T21:11:12.015Z,96.30
2023-05-03T21:13:39.403Z,97.62
2023-05-03T21:16:07.964Z,98.35
2023-05-03T21:18:35.775Z,99.92
2023-05-03T21:21:03.747Z,99.69
2023-05-03T21:23:31.145Z,100.00
2023-05-03T21:25:58.646Z,100.00
2023-05-03T21:28:26.233Z,100.00
2023-05-03T21:30:55.300Z,100.00
2023-05-03T21:33:22.833Z,100.00
2023-05-03T21:35:50.409Z,100.00
2023-05-03T21:38:17.899Z,100.00
2023-05-03T21:40:46.956Z,100.00
2023-05-03T21:43:14.424Z,100.00
2023-05-03T21:45:45.144Z,100.00
2023-05-03T21:48:12.611Z,100.00
2023-05-03T21:50:40.547Z,100.00
2023-05-03T21:53:07.980Z,100.00
2023-05-03T21:55:35.428Z,100.00
2023-05-03T21:58:02.903Z,100.00
2023-05-03T22:00:31.680Z,100.00
2023-05-03T22:02:59.236Z,100.00
2023-05-03T22:05:26.714Z,100.00
2023-05-03T22:07:54.177Z,100.00
2023-05-03T22:10:21.695Z,100.00
2023-05-03T22:12:49.262Z,100.00
2023-05-03T22:15:16.950Z,100.00
2023-05-03T22:17:44.451Z,100.00
2023-05-03T22:20:12.227Z,100.00
2023-05-03T22:22:39.714Z,100.00
2023-05-03T22:25:07.907Z,100.00
2023-05-03T22:27:35.485Z,100.00
2023-05-03T22:30:03.307Z,100.00
2023-05-03T22:32:30.995Z,100.00
2023-05-03T22:34:58.548Z,100.00
2023-05-03T22:37:26.338Z,100.00
2023-05-03T22:39:53.684Z,100.00
2023-05-03T22:42:21.126Z,100.00
2023-05-03T22:44:48.631Z,100.00
2023-05-03T22:47:16.103Z,100.00
2023-05-03T22:49:43.777Z,100.00
2023-05-03T22:52:11.358Z,100.00
2023-05-03T22:54:38.778Z,100.00
2023-05-03T22:57:06.204Z,100.00
2023-05-03T22:59:33.593Z,100.00
2023-05-03T23:02:00.973Z,100.00
2023-05-03T23:04:28.390Z,100.00
2023-05-03T23:06:55.825Z,100.00
2023-05-03T23:09:23.259Z,100.00
2023-05-03T23:11:50.725Z,100.00
2023-05-03T23:14:18.150Z,100.00
2023-05-03T23:16:45.554Z,100.00
2023-05-03T23:19:13.263Z,100.00
2023-05-03T23:21:40.650Z,100.00
2023-05-03T23:24:08.178Z,100.00
2023-05-03T23:26:35.541Z,100.00
2023-05-03T23:29:03.285Z,100.00
2023-05-03T23:31:31.631Z,100.00
2023-05-03T23:34:01.278Z,100.00
2023-05-03T23:36:28.715Z,100.00
2023-05-03T23:38:56.209Z,100.00
2023-05-03T23:41:23.651Z,100.00
2023-05-03T23:43:51.057Z,100.00
2023-05-03T23:46:18.863Z,100.00
2023-05-03T23:48:46.313Z,100.00
2023-05-03T23:51:13.753Z,100.00
2023-05-03T23:53:41.162Z,100.00
2023-05-03T23:56:09.149Z,100.00
2023-05-03T23:58:36.543Z,100.00
